sensor_id;sensor_type;location;lat;lon;timestamp;pressure;altitude;pressure_sealevel;temperature;humidity
78623;BME280;67943;54.412;9.502;2023-04-12T00:03:17;100781.13;;;4.75;77.55
78623;BME280;67943;54.412;9.502;2023-04-12T00:08:21;100766.34;;;4.69;77.61
78623;BME280;67943;54.412;9.502;2023-04-12T00:13:25;100778.50;;;4.61;77.49
78623;BME280;67943;54.412;9.502;2023-04-12T00:18:26;100761.13;;;4.57;77.58
78623;BME280;67943;54.412;9.502;2023-04-12T00:23:29;100757.63;;;4.52;77.96
78623;BME280;67943;54.412;9.502;2023-04-12T00:28:32;100747.19;;;4.49;77.70
78623;BME280;67943;54.412;9.502;2023-04-12T00:33:34;100750.66;;;4.42;78.04
78623;BME280;67943;54.412;9.502;2023-04-12T00:38:38;100737.59;;;4.34;78.87
78623;BME280;67943;54.412;9.502;2023-04-12T00:43:39;100736.72;;;4.28;79.16
78623;BME280;67943;54.412;9.502;2023-04-12T00:48:41;100722.84;;;4.26;79.35
78623;BME280;67943;54.412;9.502;2023-04-12T00:53:44;100715.84;;;4.16;79.69
78623;BME280;67943;54.412;9.502;2023-04-12T00:58:46;100717.53;;;4.07;79.83
78623;BME280;67943;54.412;9.502;2023-04-12T01:03:48;100718.41;;;4.06;80.46
78623;BME280;67943;54.412;9.502;2023-04-12T01:08:56;100708.88;;;4.12;80.16
78623;BME280;67943;54.412;9.502;2023-04-12T01:14:07;100710.63;;;4.02;80.52
78623;BME280;67943;54.412;9.502;2023-04-12T01:19:28;100697.59;;;4.11;80.48
78623;BME280;67943;54.412;9.502;2023-04-12T01:24:42;100681.97;;;4.08;80.32
78623;BME280;67943;54.412;9.502;2023-04-12T01:29:49;100677.63;;;4.05;80.64
78623;BME280;67943;54.412;9.502;2023-04-12T01:34:52;100673.28;;;3.95;80.81
78623;BME280;67943;54.412;9.502;2023-04-12T01:39:54;100674.16;;;4.08;80.68
78623;BME280;67943;54.412;9.502;2023-04-12T01:44:57;100662.88;;;4.09;80.70
78623;BME280;67943;54.412;9.502;2023-04-12T01:50:12;100651.59;;;4.08;80.71
78623;BME280;67943;54.412;9.502;2023-04-12T01:55:17;100633.41;;;4.18;80.36
78623;BME280;67943;54.412;9.502;2023-04-12T02:00:22;100634.25;;;4.17;80.49
78623;BME280;67943;54.412;9.502;2023-04-12T02:05:25;100632.50;;;4.10;80.65
78623;BME280;67943;54.412;9.502;2023-04-12T02:10:27;100626.44;;;4.17;80.94
78623;BME280;67943;54.412;9.502;2023-04-12T02:15:31;100607.34;;;4.12;81.07
78623;BME280;67943;54.412;9.502;2023-04-12T02:20:32;100596.94;;;4.21;81.23
78623;BME280;67943;54.412;9.502;2023-04-12T02:25:34;100586.53;;;4.24;80.87
78623;BME280;67943;54.412;9.502;2023-04-12T02:30:37;100589.13;;;4.18;81.10
78623;BME280;67943;54.412;9.502;2023-04-12T02:35:40;100559.63;;;4.25;80.94
78623;BME280;67943;54.412;9.502;2023-04-12T02:40:42;100544.88;;;4.22;81.10
78623;BME280;67943;54.412;9.502;2023-04-12T02:45:45;100544.00;;;4.16;81.45
78623;BME280;67943;54.412;9.502;2023-04-12T02:50:47;100545.75;;;4.27;80.93
78623;BME280;67943;54.412;9.502;2023-04-12T02:55:48;100532.72;;;4.21;80.90
78623;BME280;67943;54.412;9.502;2023-04-12T03:00:51;100526.66;;;4.27;80.58
78623;BME280;67943;54.412;9.502;2023-04-12T03:05:53;100505.81;;;4.24;80.43
78623;BME280;67943;54.412;9.502;2023-04-12T03:10:54;100500.59;;;4.27;80.44
78623;BME280;67943;54.412;9.502;2023-04-12T03:15:58;100487.59;;;4.24;80.13
78623;BME280;67943;54.412;9.502;2023-04-12T03:21:00;100479.78;;;4.21;80.59
78623;BME280;67943;54.412;9.502;2023-04-12T03:26:03;100476.25;;;4.34;80.04
78623;BME280;67943;54.412;9.502;2023-04-12T03:31:06;100460.66;;;4.22;80.28
78623;BME280;67943;54.412;9.502;2023-04-12T03:36:09;100457.19;;;4.29;79.72
78623;BME280;67943;54.412;9.502;2023-04-12T03:41:10;100452.00;;;4.23;79.57
78623;BME280;67943;54.412;9.502;2023-04-12T03:46:13;100437.19;;;4.41;79.36
78623;BME280;67943;54.412;9.502;2023-04-12T03:51:15;100427.63;;;4.39;79.17
78623;BME280;67943;54.412;9.502;2023-04-12T03:56:16;100417.22;;;4.42;78.76
78623;BME280;67943;54.412;9.502;2023-04-12T04:01:21;100403.34;;;4.35;78.57
78623;BME280;67943;54.412;9.502;2023-04-12T04:06:23;100389.41;;;4.49;78.19
78623;BME280;67943;54.412;9.502;2023-04-12T04:11:25;100370.28;;;4.54;77.48
78623;BME280;67943;54.412;9.502;2023-04-12T04:16:28;100361.59;;;4.55;77.80
78623;BME280;67943;54.412;9.502;2023-04-12T04:21:30;100351.16;;;4.61;77.53
78623;BME280;67943;54.412;9.502;2023-04-12T04:26:31;100355.44;;;4.70;76.94
78623;BME280;67943;54.412;9.502;2023-04-12T04:31:34;100353.84;;;4.35;78.03
78623;BME280;67943;54.412;9.502;2023-04-12T04:36:36;100344.28;;;4.45;77.91
78623;BME280;67943;54.412;9.502;2023-04-12T04:41:38;100332.09;;;4.52;77.59
78623;BME280;67943;54.412;9.502;2023-04-12T04:46:41;100338.13;;;4.61;77.03
78623;BME280;67943;54.412;9.502;2023-04-12T04:51:43;100326.81;;;4.62;77.00
78623;BME280;67943;54.412;9.502;2023-04-12T04:56:44;100316.31;;;4.81;76.27
78623;BME280;67943;54.412;9.502;2023-04-12T05:01:47;100307.69;;;4.63;76.67
78623;BME280;67943;54.412;9.502;2023-04-12T05:06:49;100302.44;;;4.75;76.01
78623;BME280;67943;54.412;9.502;2023-04-12T05:11:50;100309.38;;;4.73;76.22
78623;BME280;67943;54.412;9.502;2023-04-12T05:16:53;100304.84;;;5.07;75.02
78623;BME280;67943;54.412;9.502;2023-04-12T05:21:55;100299.56;;;5.18;74.23
78623;BME280;67943;54.412;9.502;2023-04-12T05:26:56;100290.69;;;5.37;73.93
78623;BME280;67943;54.412;9.502;2023-04-12T05:31:59;100269.06;;;5.23;74.00
78623;BME280;67943;54.412;9.502;2023-04-12T05:37:00;100254.81;;;5.58;73.57
78623;BME280;67943;54.412;9.502;2023-04-12T05:42:03;100245.09;;;5.75;72.74
78623;BME280;67943;54.412;9.502;2023-04-12T05:47:06;100248.44;;;5.89;72.42
78623;BME280;67943;54.412;9.502;2023-04-12T05:52:07;100240.88;;;6.35;70.78
78623;BME280;67943;54.412;9.502;2023-04-12T05:57:08;100242.47;;;6.49;70.03
78623;BME280;67943;54.412;9.502;2023-04-12T06:02:12;100237.13;;;6.58;68.82
78623;BME280;67943;54.412;9.502;2023-04-12T06:07:14;100219.88;;;7.00;67.68
78623;BME280;67943;54.412;9.502;2023-04-12T06:12:16;100215.91;;;7.28;66.18
78623;BME280;67943;54.412;9.502;2023-04-12T06:17:19;100208.28;;;7.18;65.49
78623;BME280;67943;54.412;9.502;2023-04-12T06:22:21;100192.44;;;7.24;65.61
78623;BME280;67943;54.412;9.502;2023-04-12T06:27:22;100186.03;;;7.41;64.43
78623;BME280;67943;54.412;9.502;2023-04-12T06:32:26;100173.47;;;7.59;63.81
78623;BME280;67943;54.412;9.502;2023-04-12T06:37:27;100163.22;;;7.50;63.97
78623;BME280;67943;54.412;9.502;2023-04-12T06:42:29;100143.09;;;7.93;61.23
78623;BME280;67943;54.412;9.502;2023-04-12T06:47:31;100140.63;;;8.26;60.03
78623;BME280;67943;54.412;9.502;2023-04-12T06:52:33;100134.34;;;8.36;58.94
78623;BME280;67943;54.412;9.502;2023-04-12T06:57:35;100137.53;;;8.84;57.87
78623;BME280;67943;54.412;9.502;2023-04-12T07:02:37;100122.91;;;9.08;56.37
78623;BME280;67943;54.412;9.502;2023-04-12T07:07:39;100116.81;;;9.07;55.41
78623;BME280;67943;54.412;9.502;2023-04-12T07:12:40;100124.22;;;9.24;55.42
78623;BME280;67943;54.412;9.502;2023-04-12T07:17:43;100112.19;;;9.48;54.45
78623;BME280;67943;54.412;9.502;2023-04-12T07:22:45;100100.38;;;9.63;53.66
78623;BME280;67943;54.412;9.502;2023-04-12T07:27:46;100116.72;;;9.74;52.77
78623;BME280;67943;54.412;9.502;2023-04-12T07:32:49;100108.97;;;9.69;53.22
78623;BME280;67943;54.412;9.502;2023-04-12T07:37:50;100110.63;;;9.72;54.01
78623;BME280;67943;54.412;9.502;2023-04-12T07:42:52;100077.78;;;9.87;52.61
78623;BME280;67943;54.412;9.502;2023-04-12T07:47:55;100086.63;;;10.12;52.48
78623;BME280;67943;54.412;9.502;2023-04-12T07:53:15;100072.63;;;10.11;50.83
78623;BME280;67943;54.412;9.502;2023-04-12T07:58:19;100050.38;;;9.95;52.55
78623;BME280;67943;54.412;9.502;2023-04-12T08:03:22;100041.69;;;10.21;52.05
78623;BME280;67943;54.412;9.502;2023-04-12T08:08:24;100030.56;;;10.11;52.30
78623;BME280;67943;54.412;9.502;2023-04-12T08:13:26;100022.09;;;10.03;52.91
78623;BME280;67943;54.412;9.502;2023-04-12T08:18:29;100015.34;;;10.49;51.20
78623;BME280;67943;54.412;9.502;2023-04-12T08:23:30;100017.03;;;10.76;51.20
78623;BME280;67943;54.412;9.502;2023-04-12T08:28:32;100005.50;;;10.80;51.35
78623;BME280;67943;54.412;9.502;2023-04-12T08:33:35;99992.97;;;11.12;49.74
78623;BME280;67943;54.412;9.502;2023-04-12T08:38:36;99984.94;;;11.38;48.96
78623;BME280;67943;54.412;9.502;2023-04-12T08:43:42;99998.16;;;11.60;49.01
78623;BME280;67943;54.412;9.502;2023-04-12T08:48:48;99984.44;;;11.52;49.80
78623;BME280;67943;54.412;9.502;2023-04-12T08:53:49;99962.38;;;11.55;48.98
78623;BME280;67943;54.412;9.502;2023-04-12T08:58:53;99960.13;;;11.22;49.32
78623;BME280;67943;54.412;9.502;2023-04-12T09:03:56;99940.78;;;11.23;50.12
78623;BME280;67943;54.412;9.502;2023-04-12T09:08:58;99935.81;;;11.37;50.27
78623;BME280;67943;54.412;9.502;2023-04-12T09:14:00;99922.81;;;11.33;50.40
78623;BME280;67943;54.412;9.502;2023-04-12T09:19:03;99939.38;;;11.36;49.81
78623;BME280;67943;54.412;9.502;2023-04-12T09:24:07;99920.56;;;11.24;50.38
78623;BME280;67943;54.412;9.502;2023-04-12T09:29:22;99912.19;;;11.12;51.13
78623;BME280;67943;54.412;9.502;2023-04-12T09:34:26;99899.44;;;11.25;50.57
78623;BME280;67943;54.412;9.502;2023-04-12T09:39:31;99909.47;;;11.37;50.77
78623;BME280;67943;54.412;9.502;2023-04-12T09:44:33;99904.78;;;11.45;51.39
78623;BME280;67943;54.412;9.502;2023-04-12T09:49:37;99885.31;;;11.49;51.38
78623;BME280;67943;54.412;9.502;2023-04-12T09:54:42;99875.00;;;11.65;50.15
78623;BME280;67943;54.412;9.502;2023-04-12T09:59:47;99856.41;;;11.48;51.14
78623;BME280;67943;54.412;9.502;2023-04-12T10:04:50;99863.44;;;11.47;50.51
78623;BME280;67943;54.412;9.502;2023-04-12T10:09:52;99852.97;;;11.24;51.54
78623;BME280;67943;54.412;9.502;2023-04-12T10:14:54;99855.78;;;11.41;51.09
78623;BME280;67943;54.412;9.502;2023-04-12T10:19:57;99844.19;;;11.45;50.52
78623;BME280;67943;54.412;9.502;2023-04-12T10:24:59;99832.06;;;11.41;50.76
78623;BME280;67943;54.412;9.502;2023-04-12T10:30:22;99833.09;;;11.37;50.42
78623;BME280;67943;54.412;9.502;2023-04-12T10:35:26;99830.66;;;11.11;51.22
78623;BME280;67943;54.412;9.502;2023-04-12T10:40:27;99831.50;;;11.33;50.94
78623;BME280;67943;54.412;9.502;2023-04-12T10:45:37;99824.72;;;11.06;52.55
78623;BME280;67943;54.412;9.502;2023-04-12T10:50:40;99838.31;;;11.17;51.61
78623;BME280;67943;54.412;9.502;2023-04-12T10:55:42;99826.28;;;10.88;53.52
78623;BME280;67943;54.412;9.502;2023-04-12T11:01:11;99826.63;;;11.24;54.35
78623;BME280;67943;54.412;9.502;2023-04-12T11:06:17;99851.72;;;11.11;56.38
78623;BME280;67943;54.412;9.502;2023-04-12T11:11:19;99821.19;;;10.83;56.39
78623;BME280;67943;54.412;9.502;2023-04-12T11:16:21;99829.75;;;10.42;57.63
78623;BME280;67943;54.412;9.502;2023-04-12T11:21:24;99830.94;;;10.58;59.37
78623;BME280;67943;54.412;9.502;2023-04-12T11:26:28;99841.78;;;10.49;59.94
78623;BME280;67943;54.412;9.502;2023-04-12T11:31:31;99836.84;;;10.40;61.09
78623;BME280;67943;54.412;9.502;2023-04-12T11:36:33;99837.06;;;10.09;62.37
78623;BME280;67943;54.412;9.502;2023-04-12T11:41:36;99843.38;;;10.03;63.42
78623;BME280;67943;54.412;9.502;2023-04-12T11:46:40;99833.19;;;9.94;65.23
78623;BME280;67943;54.412;9.502;2023-04-12T11:51:43;99827.16;;;9.66;66.67
78623;BME280;67943;54.412;9.502;2023-04-12T11:56:46;99825.22;;;9.71;68.11
78623;BME280;67943;54.412;9.502;2023-04-12T12:01:49;99831.25;;;9.74;69.74
78623;BME280;67943;54.412;9.502;2023-04-12T12:06:54;99831.53;;;9.65;69.20
78623;BME280;67943;54.412;9.502;2023-04-12T12:11:56;99836.22;;;9.56;68.87
78623;BME280;67943;54.412;9.502;2023-04-12T12:16:58;99839.38;;;9.12;70.61
78623;BME280;67943;54.412;9.502;2023-04-12T12:22:13;99830.56;;;9.15;71.29
78623;BME280;67943;54.412;9.502;2023-04-12T12:27:20;99831.91;;;9.27;70.76
78623;BME280;67943;54.412;9.502;2023-04-12T12:32:22;99821.75;;;8.88;71.77
78623;BME280;67943;54.412;9.502;2023-04-12T12:37:25;99820.59;;;8.97;71.90
78623;BME280;67943;54.412;9.502;2023-04-12T12:42:27;99823.13;;;9.00;71.21
78623;BME280;67943;54.412;9.502;2023-04-12T12:47:30;99813.91;;;8.88;71.97
78623;BME280;67943;54.412;9.502;2023-04-12T12:52:33;99813.47;;;8.72;72.73
78623;BME280;67943;54.412;9.502;2023-04-12T12:57:34;99805.22;;;8.57;73.51
78623;BME280;67943;54.412;9.502;2023-04-12T13:02:37;99797.56;;;8.49;74.24
78623;BME280;67943;54.412;9.502;2023-04-12T13:07:40;99795.00;;;8.48;74.69
78623;BME280;67943;54.412;9.502;2023-04-12T13:12:43;99776.59;;;8.49;74.27
78623;BME280;67943;54.412;9.502;2023-04-12T13:17:45;99785.31;;;8.50;75.29
78623;BME280;67943;54.412;9.502;2023-04-12T13:22:48;99779.09;;;8.54;75.95
78623;BME280;67943;54.412;9.502;2023-04-12T13:27:51;99773.84;;;8.54;76.31
78623;BME280;67943;54.412;9.502;2023-04-12T13:32:52;99776.16;;;8.64;75.96
78623;BME280;67943;54.412;9.502;2023-04-12T13:37:55;99743.50;;;8.74;75.76
78623;BME280;67943;54.412;9.502;2023-04-12T13:42:57;99743.75;;;8.95;75.81
78623;BME280;67943;54.412;9.502;2023-04-12T13:47:58;99738.56;;;9.20;74.87
78623;BME280;67943;54.412;9.502;2023-04-12T13:53:01;99725.25;;;9.24;75.50
78623;BME280;67943;54.412;9.502;2023-04-12T13:58:02;99721.53;;;9.31;74.90
78623;BME280;67943;54.412;9.502;2023-04-12T14:03:04;99716.47;;;9.25;74.81
78623;BME280;67943;54.412;9.502;2023-04-12T14:08:07;99706.78;;;9.01;75.43
78623;BME280;67943;54.412;9.502;2023-04-12T14:13:08;99701.44;;;9.04;76.00
78623;BME280;67943;54.412;9.502;2023-04-12T14:18:10;99698.59;;;9.11;75.72
78623;BME280;67943;54.412;9.502;2023-04-12T14:23:12;99704.44;;;8.93;76.57
78623;BME280;67943;54.412;9.502;2023-04-12T14:28:14;99700.53;;;9.05;76.64
78623;BME280;67943;54.412;9.502;2023-04-12T14:33:16;99689.56;;;9.20;76.26
78623;BME280;67943;54.412;9.502;2023-04-12T14:38:19;99689.91;;;9.09;76.37
78623;BME280;67943;54.412;9.502;2023-04-12T14:43:21;99689.75;;;8.88;77.73
78623;BME280;67943;54.412;9.502;2023-04-12T14:48:23;99679.75;;;8.99;77.95
78623;BME280;67943;54.412;9.502;2023-04-12T14:53:26;99678.75;;;9.03;77.66
78623;BME280;67943;54.412;9.502;2023-04-12T14:58:27;99682.59;;;8.93;78.63
78623;BME280;67943;54.412;9.502;2023-04-12T15:03:29;99674.44;;;9.00;78.54
78623;BME280;67943;54.412;9.502;2023-04-12T15:08:34;99680.47;;;9.04;78.42
78623;BME280;67943;54.412;9.502;2023-04-12T15:13:40;99671.78;;;9.02;78.84
78623;BME280;67943;54.412;9.502;2023-04-12T15:18:43;99657.56;;;9.09;78.78
78623;BME280;67943;54.412;9.502;2023-04-12T15:23:46;99664.16;;;9.21;78.78
78623;BME280;67943;54.412;9.502;2023-04-12T15:28:47;99656.19;;;9.24;78.89
78623;BME280;67943;54.412;9.502;2023-04-12T15:33:49;99646.00;;;9.39;78.57
78623;BME280;67943;54.412;9.502;2023-04-12T15:38:52;99647.81;;;9.37;78.69
78623;BME280;67943;54.412;9.502;2023-04-12T15:43:53;99645.25;;;9.36;78.78
78623;BME280;67943;54.412;9.502;2023-04-12T15:48:55;99635.81;;;9.30;79.48
78623;BME280;67943;54.412;9.502;2023-04-12T15:53:59;99630.34;;;9.36;79.50
78623;BME280;67943;54.412;9.502;2023-04-12T15:59:00;99634.09;;;9.54;78.85
78623;BME280;67943;54.412;9.502;2023-04-12T16:04:02;99616.38;;;9.36;79.56
78623;BME280;67943;54.412;9.502;2023-04-12T16:09:05;99617.13;;;9.39;79.38
78623;BME280;67943;54.412;9.502;2023-04-12T16:14:07;99618.63;;;9.46;79.58
78623;BME280;67943;54.412;9.502;2023-04-12T16:19:08;99620.97;;;9.29;79.69
78623;BME280;67943;54.412;9.502;2023-04-12T16:24:11;99606.25;;;9.25;79.94
78623;BME280;67943;54.412;9.502;2023-04-12T16:29:13;99614.56;;;9.13;80.31
78623;BME280;67943;54.412;9.502;2023-04-12T16:34:14;99608.72;;;9.05;80.75
78623;BME280;67943;54.412;9.502;2023-04-12T16:39:22;99606.63;;;9.14;81.05
78623;BME280;67943;54.412;9.502;2023-04-12T16:44:23;99608.81;;;9.02;81.43
78623;BME280;67943;54.412;9.502;2023-04-12T16:49:25;99612.94;;;9.09;81.27
78623;BME280;67943;54.412;9.502;2023-04-12T16:54:28;99608.91;;;8.99;81.66
78623;BME280;67943;54.412;9.502;2023-04-12T16:59:30;99607.19;;;8.98;81.93
78623;BME280;67943;54.412;9.502;2023-04-12T17:04:31;99609.00;;;8.96;82.04
78623;BME280;67943;54.412;9.502;2023-04-12T17:09:34;99601.84;;;9.01;81.81
78623;BME280;67943;54.412;9.502;2023-04-12T17:14:36;99590.41;;;9.03;81.87
78623;BME280;67943;54.412;9.502;2023-04-12T17:19:37;99594.69;;;9.06;81.76
78623;BME280;67943;54.412;9.502;2023-04-12T17:24:40;99591.06;;;9.10;81.73
78623;BME280;67943;54.412;9.502;2023-04-12T17:29:42;99596.41;;;9.07;81.79
78623;BME280;67943;54.412;9.502;2023-04-12T17:34:44;99592.06;;;9.06;81.82
78623;BME280;67943;54.412;9.502;2023-04-12T17:39:48;99583.97;;;9.12;82.04
78623;BME280;67943;54.412;9.502;2023-04-12T17:44:50;99582.06;;;9.17;81.44
78623;BME280;67943;54.412;9.502;2023-04-12T17:49:52;99586.97;;;9.26;81.35
78623;BME280;67943;54.412;9.502;2023-04-12T17:54:55;99584.63;;;9.19;81.58
78623;BME280;67943;54.412;9.502;2023-04-12T17:59:56;99583.81;;;9.17;81.87
78623;BME280;67943;54.412;9.502;2023-04-12T18:04:58;99571.66;;;9.14;81.83
78623;BME280;67943;54.412;9.502;2023-04-12T18:10:01;99574.88;;;9.22;81.36
78623;BME280;67943;54.412;9.502;2023-04-12T18:15:03;99580.34;;;9.16;81.50
78623;BME280;67943;54.412;9.502;2023-04-12T18:20:06;99580.34;;;9.16;81.46
78623;BME280;67943;54.412;9.502;2023-04-12T18:25:10;99567.22;;;9.16;81.56
78623;BME280;67943;54.412;9.502;2023-04-12T18:30:12;99571.56;;;9.17;81.43
78623;BME280;67943;54.412;9.502;2023-04-12T18:35:14;99580.25;;;9.19;81.32
78623;BME280;67943;54.412;9.502;2023-04-12T18:40:17;99579.38;;;9.19;81.44
78623;BME280;67943;54.412;9.502;2023-04-12T18:45:21;99575.00;;;9.19;81.77
78623;BME280;67943;54.412;9.502;2023-04-12T18:50:23;99579.44;;;9.17;81.70
78623;BME280;67943;54.412;9.502;2023-04-12T18:55:25;99576.72;;;9.20;81.67
78623;BME280;67943;54.412;9.502;2023-04-12T19:00:27;99583.88;;;9.15;81.79
78623;BME280;67943;54.412;9.502;2023-04-12T19:05:29;99580.34;;;9.16;81.78
78623;BME280;67943;54.412;9.502;2023-04-12T19:10:31;99578.53;;;9.18;81.86
78623;BME280;67943;54.412;9.502;2023-04-12T19:15:33;99587.19;;;9.20;81.90
78623;BME280;67943;54.412;9.502;2023-04-12T19:20:34;99594.03;;;9.24;81.80
78623;BME280;67943;54.412;9.502;2023-04-12T19:25:37;99594.47;;;9.12;82.21
78623;BME280;67943;54.412;9.502;2023-04-12T19:30:38;99609.13;;;8.66;81.02
78623;BME280;67943;54.412;9.502;2023-04-12T19:35:40;99625.28;;;8.25;82.75
78623;BME280;67943;54.412;9.502;2023-04-12T19:40:43;99630.34;;;8.31;82.68
78623;BME280;67943;54.412;9.502;2023-04-12T19:45:44;99627.75;;;8.31;83.17
78623;BME280;67943;54.412;9.502;2023-04-12T19:50:46;99629.81;;;8.20;83.38
78623;BME280;67943;54.412;9.502;2023-04-12T19:55:49;99628.91;;;8.21;83.50
78623;BME280;67943;54.412;9.502;2023-04-12T20:00:51;99633.25;;;8.22;83.22
78623;BME280;67943;54.412;9.502;2023-04-12T20:05:54;99646.25;;;8.25;83.43
78623;BME280;67943;54.412;9.502;2023-04-12T20:10:58;99659.03;;;8.07;83.68
78623;BME280;67943;54.412;9.502;2023-04-12T20:16:00;99658.81;;;7.84;83.80
78623;BME280;67943;54.412;9.502;2023-04-12T20:21:02;99662.97;;;7.91;84.10
78623;BME280;67943;54.412;9.502;2023-04-12T20:26:06;99660.97;;;8.01;82.99
78623;BME280;67943;54.412;9.502;2023-04-12T20:31:08;99658.25;;;8.04;83.19
78623;BME280;67943;54.412;9.502;2023-04-12T20:36:09;99660.72;;;8.08;82.06
78623;BME280;67943;54.412;9.502;2023-04-12T20:41:13;99645.91;;;8.07;81.86
78623;BME280;67943;54.412;9.502;2023-04-12T20:46:16;99637.22;;;8.07;81.69
78623;BME280;67943;54.412;9.502;2023-04-12T20:51:19;99636.22;;;8.09;81.66
78623;BME280;67943;54.412;9.502;2023-04-12T20:56:24;99634.41;;;8.11;81.54
78623;BME280;67943;54.412;9.502;2023-04-12T21:01:25;99638.06;;;8.07;81.25
78623;BME280;67943;54.412;9.502;2023-04-12T21:06:27;99624.97;;;8.07;81.11
78623;BME280;67943;54.412;9.502;2023-04-12T21:11:30;99608.44;;;8.05;81.40
78623;BME280;67943;54.412;9.502;2023-04-12T21:16:31;99605.88;;;8.04;81.55
78623;BME280;67943;54.412;9.502;2023-04-12T21:21:33;99615.38;;;8.06;81.02
78623;BME280;67943;54.412;9.502;2023-04-12T21:26:36;99614.63;;;8.03;80.79
78623;BME280;67943;54.412;9.502;2023-04-12T21:31:38;99609.44;;;8.01;81.06
78623;BME280;67943;54.412;9.502;2023-04-12T21:36:40;99609.53;;;7.98;81.05
78623;BME280;67943;54.412;9.502;2023-04-12T21:41:43;99614.84;;;7.95;80.58
78623;BME280;67943;54.412;9.502;2023-04-12T21:46:45;99619.31;;;7.92;80.93
78623;BME280;67943;54.412;9.502;2023-04-12T21:51:46;99629.81;;;7.90;81.21
78623;BME280;67943;54.412;9.502;2023-04-12T21:56:49;99630.72;;;7.89;80.64
78623;BME280;67943;54.412;9.502;2023-04-12T22:01:51;99634.63;;;7.76;80.44
78623;BME280;67943;54.412;9.502;2023-04-12T22:06:52;99625.22;;;7.69;80.75
78623;BME280;67943;54.412;9.502;2023-04-12T22:11:56;99631.44;;;7.65;80.58
78623;BME280;67943;54.412;9.502;2023-04-12T22:17:01;99620.59;;;7.48;80.91
78623;BME280;67943;54.412;9.502;2023-04-12T22:22:03;99629.50;;;7.40;81.25
78623;BME280;67943;54.412;9.502;2023-04-12T22:27:06;99629.66;;;7.34;81.43
78623;BME280;67943;54.412;9.502;2023-04-12T22:32:08;99637.00;;;7.22;81.66
78623;BME280;67943;54.412;9.502;2023-04-12T22:37:09;99631.00;;;7.18;82.13
78623;BME280;67943;54.412;9.502;2023-04-12T22:42:12;99626.75;;;7.14;81.79
78623;BME280;67943;54.412;9.502;2023-04-12T22:47:19;99621.50;;;7.14;81.86
78623;BME280;67943;54.412;9.502;2023-04-12T22:52:21;99637.13;;;7.17;82.12
78623;BME280;67943;54.412;9.502;2023-04-12T22:57:24;99630.00;;;7.22;82.37
78623;BME280;67943;54.412;9.502;2023-04-12T23:02:25;99649.22;;;7.21;82.09
78623;BME280;67943;54.412;9.502;2023-04-12T23:07:27;99620.16;;;6.98;82.17
78623;BME280;67943;54.412;9.502;2023-04-12T23:12:30;99612.66;;;6.86;82.59
78623;BME280;67943;54.412;9.502;2023-04-12T23:17:31;99638.91;;;6.81;82.63
78623;BME280;67943;54.412;9.502;2023-04-12T23:22:33;99641.63;;;6.76;82.28
78623;BME280;67943;54.412;9.502;2023-04-12T23:27:43;99648.66;;;6.74;82.81
78623;BME280;67943;54.412;9.502;2023-04-12T23:32:45;99654.03;;;6.68;82.67
78623;BME280;67943;54.412;9.502;2023-04-12T23:37:47;99640.16;;;6.65;82.57
78623;BME280;67943;54.412;9.502;2023-04-12T23:42:50;99637.00;;;6.52;82.71
78623;BME280;67943;54.412;9.502;2023-04-12T23:47:51;99631.84;;;6.49;82.87
78623;BME280;67943;54.412;9.502;2023-04-12T23:52:53;99625.91;;;6.42;82.79
78623;BME280;67943;54.412;9.502;2023-04-12T23:57:56;99613.69;;;6.43;82.46
